createdAt,value
2023-09-21T00:01:07.902Z,11.88
2023-09-21T00:03:38.680Z,11.95
2023-09-21T00:06:06.450Z,11.91
2023-09-21T00:08:34.017Z,11.95
2023-09-21T00:11:02.255Z,11.94
2023-09-21T00:13:30.212Z,11.97
2023-09-21T00:16:03.515Z,12.01
2023-09-21T00:18:30.880Z,11.95
2023-09-21T00:21:02.111Z,11.87
2023-09-21T00:23:29.003Z,11.75
2023-09-21T00:26:01.381Z,11.65
2023-09-21T00:28:29.392Z,11.63
2023-09-21T00:30:58.785Z,11.57
2023-09-21T00:33:34.267Z,11.59
2023-09-21T00:36:01.614Z,11.57
2023-09-21T00:38:28.625Z,11.56
2023-09-21T00:41:00.023Z,11.50
2023-09-21T00:43:26.718Z,11.48
2023-09-21T00:45:55.647Z,11.55
2023-09-21T00:48:27.046Z,11.54
2023-09-21T00:50:56.031Z,11.56
2023-09-21T00:53:23.796Z,11.61
2023-09-21T00:55:59.580Z,11.59
2023-09-21T00:58:26.963Z,11.51
2023-09-21T01:00:55.914Z,11.47
2023-09-21T01:03:24.258Z,11.50
2023-09-21T01:05:51.568Z,11.49
2023-09-21T01:08:21.305Z,11.52
2023-09-21T01:10:50.880Z,11.51
2023-09-21T01:13:19.668Z,11.48
2023-09-21T01:16:12.288Z,11.57
2023-09-21T01:18:43.189Z,11.56
2023-09-21T01:21:11.531Z,11.55
2023-09-21T01:23:47.100Z,11.53
2023-09-21T01:26:17.805Z,11.51
2023-09-21T01:28:47.363Z,11.48
2023-09-21T01:31:14.600Z,11.48
2023-09-21T01:33:43.383Z,11.50
2023-09-21T01:36:12.139Z,11.48
2023-09-21T01:38:47.149Z,11.47
2023-09-21T01:41:16.045Z,11.36
2023-09-21T01:43:43.116Z,11.30
2023-09-21T01:46:10.463Z,11.27
2023-09-21T01:48:38.192Z,11.24
2023-09-21T01:51:06.825Z,11.26
2023-09-21T01:53:34.071Z,11.23
2023-09-21T01:56:01.083Z,11.25
2023-09-21T01:58:27.695Z,11.20
2023-09-21T02:00:54.364Z,11.21
2023-09-21T02:03:29.555Z,11.19
2023-09-21T02:05:59.533Z,11.21
2023-09-21T02:08:27.252Z,11.23
2023-09-21T02:10:54.147Z,11.19
2023-09-21T02:13:21.723Z,11.15
2023-09-21T02:15:52.491Z,11.14
2023-09-21T02:18:20.492Z,11.19
2023-09-21T02:20:53.791Z,11.22
2023-09-21T02:23:23.226Z,11.26
2023-09-21T02:25:50.162Z,11.24
2023-09-21T02:28:16.986Z,11.20
2023-09-21T02:30:48.745Z,11.24
2023-09-21T02:33:19.171Z,11.31
2023-09-21T02:35:48.781Z,11.29
2023-09-21T02:38:18.280Z,11.30
2023-09-21T02:40:44.860Z,11.37
2023-09-21T02:43:11.406Z,11.41
2023-09-21T02:45:38.352Z,11.35
2023-09-21T02:48:06.556Z,11.30
2023-09-21T02:50:33.614Z,11.27
2023-09-21T02:53:11.895Z,11.26
2023-09-21T02:55:40.157Z,11.25
2023-09-21T02:58:12.265Z,11.27
2023-09-21T03:00:46.741Z,11.28
2023-09-21T03:03:16.434Z,11.29
2023-09-21T03:05:49.571Z,11.30
2023-09-21T03:08:17.876Z,11.32
2023-09-21T03:10:46.510Z,11.35
2023-09-21T03:13:20.596Z,11.40
2023-09-21T03:15:49.845Z,11.40
2023-09-21T03:18:17.988Z,11.37
2023-09-21T03:20:45.741Z,11.31
2023-09-21T03:23:14.542Z,11.26
2023-09-21T03:25:44.312Z,11.21
2023-09-21T03:28:16.776Z,11.17
2023-09-21T03:30:45.095Z,11.13
2023-09-21T03:33:12.545Z,11.09
2023-09-21T03:35:39.745Z,11.10
2023-09-21T03:38:07.573Z,11.15
2023-09-21T03:40:34.899Z,11.20
2023-09-21T03:43:02.109Z,11.23
2023-09-21T03:45:28.752Z,11.26
2023-09-21T03:47:56.602Z,11.27
2023-09-21T03:50:26.685Z,11.23
2023-09-21T03:52:56.181Z,11.17
2023-09-21T03:55:23.278Z,11.12
2023-09-21T03:57:49.911Z,11.04
2023-09-21T04:00:27.520Z,10.97
2023-09-21T04:02:55.165Z,10.88
2023-09-21T04:05:25.785Z,10.87
2023-09-21T04:07:52.919Z,10.87
2023-09-21T04:10:19.546Z,10.86
2023-09-21T04:12:46.105Z,10.83
2023-09-21T04:15:13.261Z,10.79
2023-09-21T04:17:43.390Z,10.76
2023-09-21T04:20:14.322Z,10.82
2023-09-21T04:22:42.438Z,10.90
2023-09-21T04:25:11.180Z,10.94
2023-09-21T04:27:40.297Z,10.97
2023-09-21T04:30:09.637Z,10.98
2023-09-21T04:32:40.133Z,11.03
2023-09-21T04:35:07.471Z,11.03
2023-09-21T04:37:35.409Z,11.04
2023-09-21T04:40:12.976Z,11.06
2023-09-21T04:42:41.321Z,11.05
2023-09-21T04:45:12.473Z,11.03
2023-09-21T04:47:50.816Z,11.07
2023-09-21T04:50:18.748Z,11.06
2023-09-21T04:52:46.650Z,11.10
2023-09-21T04:55:17.237Z,11.13
2023-09-21T04:57:44.942Z,11.15
2023-09-21T05:00:17.411Z,11.17
2023-09-21T05:02:45.002Z,11.16
2023-09-21T05:05:12.564Z,11.21
2023-09-21T05:07:39.252Z,11.26
2023-09-21T05:10:08.322Z,11.29
2023-09-21T05:12:35.631Z,11.35
2023-09-21T05:17:34.604Z,11.35
2023-09-21T05:20:01.255Z,11.44
2023-09-21T05:22:27.835Z,11.41
2023-09-21T05:24:54.413Z,11.38
2023-09-21T05:27:22.455Z,11.35
2023-09-21T05:29:49.170Z,11.45
2023-09-21T05:32:16.435Z,11.50
2023-09-21T05:34:43.234Z,11.60
2023-09-21T05:37:09.939Z,11.66
2023-09-21T05:39:37.007Z,11.82
2023-09-21T05:42:05.622Z,12.02
2023-09-21T05:44:32.244Z,12.08
2023-09-21T05:46:58.820Z,12.20
2023-09-21T05:49:25.400Z,12.37
2023-09-21T05:51:57.492Z,12.57
2023-09-21T05:54:25.286Z,12.51
2023-09-21T05:56:53.276Z,12.42
2023-09-21T05:59:20.515Z,12.51
2023-09-21T06:01:47.321Z,12.64
2023-09-21T06:04:14.084Z,12.86
2023-09-21T06:06:40.760Z,12.96
2023-09-21T06:09:09.066Z,13.22
2023-09-21T06:11:35.643Z,13.08
2023-09-21T06:14:03.681Z,12.93
2023-09-21T06:16:30.462Z,12.77
2023-09-21T06:18:57.134Z,12.67
2023-09-21T06:21:23.815Z,12.64
2023-09-21T06:23:51.746Z,12.71
2023-09-21T06:26:19.856Z,12.90
2023-09-21T06:28:49.928Z,13.09
2023-09-21T06:31:17.613Z,13.28
2023-09-21T06:33:44.281Z,13.56
2023-09-21T06:36:21.656Z,13.68
2023-09-21T06:38:48.785Z,13.79
2023-09-21T06:41:15.776Z,13.93
2023-09-21T06:43:45.781Z,14.02
2023-09-21T06:46:13.609Z,14.19
2023-09-21T06:48:43.280Z,14.40
2023-09-21T06:51:10.176Z,14.60
2023-09-21T06:53:37.508Z,14.73
2023-09-21T06:56:05.085Z,14.93
2023-09-21T06:58:36.684Z,15.11
2023-09-21T07:01:06.500Z,15.30
2023-09-21T07:03:36.109Z,15.30
2023-09-21T07:06:03.021Z,15.50
2023-09-21T07:08:29.681Z,15.70
2023-09-21T07:10:56.516Z,15.84
2023-09-21T07:13:23.110Z,15.95
2023-09-21T07:15:50.129Z,15.85
2023-09-21T07:18:17.534Z,15.89
2023-09-21T07:20:44.579Z,16.20
2023-09-21T07:23:11.444Z,16.59
2023-09-21T07:25:38.708Z,16.66
2023-09-21T07:28:06.023Z,16.69
2023-09-21T07:30:34.642Z,16.73
2023-09-21T07:33:02.243Z,16.86
2023-09-21T07:35:29.688Z,16.98
2023-09-21T07:37:57.113Z,16.98
2023-09-21T07:40:24.501Z,17.00
2023-09-21T07:42:52.400Z,17.17
2023-09-21T07:45:20.845Z,17.27
2023-09-21T07:47:48.098Z,17.56
2023-09-21T07:50:14.965Z,17.83
2023-09-21T07:52:41.609Z,18.08
2023-09-21T07:55:10.049Z,18.35
2023-09-21T07:57:41.129Z,18.78
2023-09-21T08:00:11.896Z,18.84
2023-09-21T08:02:38.562Z,19.09
2023-09-21T08:05:11.341Z,19.19
2023-09-21T08:07:38.381Z,19.51
2023-09-21T08:10:06.109Z,19.64
2023-09-21T08:12:32.962Z,19.82
2023-09-21T08:15:01.111Z,20.11
2023-09-21T08:17:31.651Z,20.08
2023-09-21T08:19:58.469Z,19.98
2023-09-21T08:22:27.779Z,20.01
2023-09-21T08:24:54.599Z,20.12
2023-09-21T08:27:23.745Z,20.06
2023-09-21T08:29:51.320Z,19.94
2023-09-21T08:32:18.646Z,20.18
2023-09-21T08:34:45.481Z,20.17
2023-09-21T08:37:12.414Z,20.20
2023-09-21T08:39:39.378Z,20.28
2023-09-21T08:42:06.416Z,20.45
2023-09-21T08:44:33.596Z,20.56
2023-09-21T08:47:01.210Z,20.65
2023-09-21T08:49:28.425Z,19.93
2023-09-21T08:51:57.976Z,19.62
2023-09-21T08:54:25.189Z,19.71
2023-09-21T08:56:57.147Z,19.97
2023-09-21T08:59:25.935Z,20.33
2023-09-21T09:01:53.093Z,20.47
2023-09-21T09:04:21.227Z,20.63
2023-09-21T09:06:48.826Z,20.67
2023-09-21T09:09:17.248Z,20.84
2023-09-21T09:11:46.357Z,21.17
2023-09-21T09:14:15.686Z,21.28
2023-09-21T09:16:42.750Z,21.35
2023-09-21T09:19:10.672Z,21.05
2023-09-21T09:21:37.943Z,20.90
2023-09-21T09:24:05.997Z,21.03
2023-09-21T09:26:32.679Z,20.53
2023-09-21T09:29:15.254Z,19.78
2023-09-21T09:31:43.277Z,19.64
2023-09-21T09:34:13.607Z,19.44
2023-09-21T09:36:42.522Z,19.13
2023-09-21T09:39:09.701Z,19.22
2023-09-21T09:41:36.942Z,19.67
2023-09-21T09:44:07.734Z,20.21
2023-09-21T09:46:36.715Z,20.39
2023-09-21T09:49:04.340Z,20.59
2023-09-21T09:51:46.691Z,21.07
2023-09-21T09:54:14.352Z,21.07
2023-09-21T09:56:44.407Z,21.21
2023-09-21T09:59:12.906Z,21.48
2023-09-21T10:01:40.644Z,21.37
2023-09-21T10:04:08.763Z,21.29
2023-09-21T10:06:37.897Z,21.48
2023-09-21T10:09:10.348Z,21.54
2023-09-21T10:11:40.790Z,21.58
2023-09-21T10:14:08.493Z,21.65
2023-09-21T10:16:40.218Z,21.83
2023-09-21T10:19:17.385Z,21.94
2023-09-21T10:21:46.847Z,21.54
2023-09-21T10:24:13.574Z,21.43
2023-09-21T10:26:45.219Z,21.14
2023-09-21T10:29:13.635Z,20.91
2023-09-21T10:31:45.101Z,21.37
2023-09-21T10:34:20.336Z,21.68
2023-09-21T10:36:53.473Z,21.88
2023-09-21T10:39:41.364Z,21.98
2023-09-21T10:42:08.184Z,22.20
2023-09-21T10:44:53.855Z,22.40
2023-09-21T10:47:51.157Z,22.35
2023-09-21T10:50:24.436Z,22.34
2023-09-21T10:52:53.060Z,22.55
2023-09-21T10:55:22.115Z,22.67
2023-09-21T10:57:50.778Z,22.56
2023-09-21T11:00:19.244Z,22.64
2023-09-21T11:02:51.115Z,22.70
2023-09-21T11:05:20.409Z,22.77
2023-09-21T11:07:49.190Z,22.91
2023-09-21T11:10:17.842Z,22.98
2023-09-21T11:12:46.431Z,23.13
2023-09-21T11:15:15.403Z,22.73
2023-09-21T11:17:44.409Z,22.20
2023-09-21T11:20:16.584Z,21.66
2023-09-21T11:22:49.453Z,21.75
2023-09-21T11:25:18.480Z,21.80
2023-09-21T11:27:45.235Z,21.84
2023-09-21T11:30:14.441Z,22.04
2023-09-21T11:32:47.672Z,22.51
2023-09-21T11:35:18.685Z,22.52
2023-09-21T11:37:47.644Z,22.16
2023-09-21T11:40:15.874Z,22.58
2023-09-21T11:42:47.215Z,22.97
2023-09-21T11:45:17.699Z,23.15
2023-09-21T11:47:56.518Z,23.40
2023-09-21T11:50:33.156Z,23.63
2023-09-21T11:53:00.326Z,23.55
2023-09-21T11:55:31.075Z,23.58
2023-09-21T11:58:08.752Z,23.62
2023-09-21T12:00:49.096Z,23.37
2023-09-21T12:03:19.396Z,23.61
2023-09-21T12:05:46.446Z,23.76
2023-09-21T12:08:17.878Z,23.73
2023-09-21T12:10:48.607Z,23.64
2023-09-21T12:13:15.834Z,23.51
2023-09-21T12:15:43.233Z,23.59
2023-09-21T12:18:15.903Z,24.04
2023-09-21T12:20:46.320Z,24.03
2023-09-21T12:23:13.892Z,23.83
2023-09-21T12:25:41.217Z,23.80
2023-09-21T12:28:10.306Z,23.70
2023-09-21T12:30:39.203Z,24.00
2023-09-21T12:33:07.775Z,24.19
2023-09-21T12:35:34.892Z,24.17
2023-09-21T12:38:01.509Z,24.29
2023-09-21T12:40:28.716Z,24.08
2023-09-21T12:42:55.885Z,23.75
2023-09-21T12:45:22.733Z,23.78
2023-09-21T12:47:49.563Z,23.78
2023-09-21T12:50:17.476Z,23.91
2023-09-21T12:52:44.669Z,23.93
2023-09-21T12:55:12.041Z,24.00
2023-09-21T12:57:42.140Z,24.09
2023-09-21T13:00:20.182Z,24.12
2023-09-21T13:02:47.463Z,24.22
2023-09-21T13:05:14.623Z,24.24
2023-09-21T13:07:45.575Z,24.21
2023-09-21T13:10:16.098Z,24.19
2023-09-21T13:12:43.468Z,24.24
2023-09-21T13:15:10.507Z,24.16
2023-09-21T13:17:38.047Z,24.00
2023-09-21T13:20:06.008Z,23.89
2023-09-21T13:22:36.185Z,23.82
2023-09-21T13:25:03.154Z,23.79
2023-09-21T13:27:32.616Z,23.72
2023-09-21T13:29:59.148Z,23.73
2023-09-21T13:32:26.626Z,23.83
2023-09-21T13:34:55.430Z,23.89
2023-09-21T13:37:22.159Z,23.68
2023-09-21T13:39:49.328Z,23.63
2023-09-21T13:42:16.295Z,23.76
2023-09-21T13:44:42.904Z,23.60
2023-09-21T13:47:09.540Z,23.62
2023-09-21T13:49:36.482Z,23.55
2023-09-21T13:52:03.951Z,23.51
2023-09-21T13:54:31.238Z,23.34
2023-09-21T13:56:57.920Z,23.40
2023-09-21T13:59:24.583Z,23.25
2023-09-21T14:01:51.357Z,23.33
2023-09-21T14:04:18.314Z,23.24
2023-09-21T14:06:45.248Z,23.24
2023-09-21T14:09:11.980Z,23.19
2023-09-21T14:11:38.625Z,23.07
2023-09-21T14:14:06.177Z,22.93
2023-09-21T14:16:32.975Z,22.89
2023-09-21T14:18:59.703Z,22.96
2023-09-21T14:21:27.328Z,22.86
2023-09-21T14:23:53.971Z,22.78
2023-09-21T14:26:20.834Z,22.76
2023-09-21T14:28:47.538Z,22.81
2023-09-21T14:31:14.351Z,22.74
2023-09-21T14:33:41.141Z,22.66
2023-09-21T14:36:09.829Z,22.55
2023-09-21T14:38:36.576Z,22.61
2023-09-21T14:41:03.957Z,22.51
2023-09-21T14:43:30.561Z,22.39
2023-09-21T14:45:57.234Z,22.28
2023-09-21T14:48:24.219Z,22.36
2023-09-21T14:50:50.822Z,22.41
2023-09-21T14:53:17.417Z,22.42
2023-09-21T14:55:44.243Z,22.41
2023-09-21T14:58:11.902Z,22.45
2023-09-21T15:00:39.422Z,22.38
2023-09-21T15:03:06.295Z,22.25
2023-09-21T15:05:32.998Z,22.28
2023-09-21T15:08:12.757Z,22.21
2023-09-21T15:10:40.498Z,22.12
2023-09-21T15:13:07.128Z,22.09
2023-09-21T15:15:33.770Z,22.08
2023-09-21T15:18:00.632Z,22.08
2023-09-21T15:20:28.178Z,22.04
2023-09-21T15:22:55.072Z,22.09
2023-09-21T15:25:22.021Z,22.10
2023-09-21T15:27:48.622Z,22.08
2023-09-21T15:30:15.953Z,22.07
2023-09-21T15:32:43.025Z,22.19
2023-09-21T15:35:12.544Z,22.08
2023-09-21T15:37:39.071Z,21.99
2023-09-21T15:40:06.379Z,21.90
2023-09-21T15:42:33.255Z,21.83
2023-09-21T15:45:00.122Z,21.86
2023-09-21T15:47:26.992Z,21.82
2023-09-21T15:49:53.862Z,21.77
2023-09-21T15:52:20.591Z,21.75
2023-09-21T15:54:47.595Z,21.68
2023-09-21T15:57:14.566Z,21.51
2023-09-21T15:59:41.875Z,21.37
2023-09-21T16:02:10.511Z,21.29
2023-09-21T16:04:37.827Z,21.19
2023-09-21T16:07:05.177Z,20.99
2023-09-21T16:09:31.948Z,20.69
2023-09-21T16:11:58.765Z,20.45
2023-09-21T16:14:25.630Z,20.22
2023-09-21T16:16:52.453Z,20.05
2023-09-21T16:19:19.246Z,19.90
2023-09-21T16:21:45.890Z,19.83
2023-09-21T16:24:13.052Z,19.75
2023-09-21T16:26:39.804Z,19.66
2023-09-21T16:29:07.222Z,19.56
2023-09-21T16:31:34.049Z,19.45
2023-09-21T16:34:00.746Z,19.36
2023-09-21T16:36:27.545Z,19.26
2023-09-21T16:38:54.401Z,19.18
2023-09-21T16:41:21.363Z,19.11
2023-09-21T16:43:48.377Z,19.01
2023-09-21T16:46:39.587Z,18.91
2023-09-21T16:49:03.155Z,18.80
2023-09-21T16:51:29.792Z,18.75
2023-09-21T16:53:59.188Z,18.60
2023-09-21T16:56:25.815Z,18.55
2023-09-21T16:58:54.144Z,18.56
2023-09-21T17:01:20.887Z,18.45
2023-09-21T17:03:47.752Z,18.39
2023-09-21T17:06:14.765Z,18.33
2023-09-21T17:08:41.408Z,18.25
2023-09-21T17:11:08.018Z,18.11
2023-09-21T17:13:34.615Z,17.99
2023-09-21T17:16:01.263Z,17.95
2023-09-21T17:18:27.930Z,17.87
2023-09-21T17:20:54.640Z,17.87
2023-09-21T17:23:21.228Z,17.86
2023-09-21T17:25:48.699Z,17.77
2023-09-21T17:28:15.444Z,17.62
2023-09-21T17:30:42.457Z,17.53
2023-09-21T17:33:09.218Z,17.43
2023-09-21T17:35:37.286Z,17.34
2023-09-21T17:38:04.205Z,17.23
2023-09-21T17:40:30.933Z,17.17
2023-09-21T17:42:57.511Z,17.31
2023-09-21T17:45:24.137Z,17.32
2023-09-21T17:47:50.979Z,17.29
2023-09-21T17:50:18.063Z,17.28
2023-09-21T17:52:44.758Z,17.24
2023-09-21T17:55:12.077Z,17.20
2023-09-21T17:57:38.867Z,17.13
2023-09-21T18:00:07.483Z,17.01
2023-09-21T18:02:37.368Z,16.92
2023-09-21T18:05:05.180Z,16.96
2023-09-21T18:07:32.326Z,16.97
2023-09-21T18:09:58.885Z,16.99
2023-09-21T18:12:25.964Z,16.96
2023-09-21T18:14:52.611Z,16.96
2023-09-21T18:17:19.209Z,16.96
2023-09-21T18:19:45.775Z,16.91
2023-09-21T18:22:13.438Z,16.95
2023-09-21T18:24:40.139Z,16.95
2023-09-21T18:27:06.846Z,16.87
2023-09-21T18:29:34.064Z,16.78
2023-09-21T18:32:01.625Z,16.79
2023-09-21T18:34:28.408Z,16.82
2023-09-21T18:36:54.983Z,16.77
2023-09-21T18:39:21.638Z,16.75
2023-09-21T18:41:48.755Z,16.70
2023-09-21T18:44:15.323Z,16.70
2023-09-21T18:46:42.568Z,16.58
2023-09-21T18:49:09.286Z,16.43
2023-09-21T18:51:36.031Z,16.39
2023-09-21T18:54:02.750Z,16.36
2023-09-21T18:56:29.640Z,16.30
2023-09-21T18:58:57.634Z,16.25
2023-09-21T19:01:25.243Z,16.28
2023-09-21T19:03:54.883Z,16.24
2023-09-21T19:06:25.423Z,16.14
2023-09-21T19:08:52.852Z,16.04
2023-09-21T19:11:20.579Z,16.07
2023-09-21T19:13:47.650Z,15.99
2023-09-21T19:16:14.737Z,16.04
2023-09-21T19:18:41.776Z,16.07
2023-09-21T19:21:09.719Z,15.99
2023-09-21T19:23:36.893Z,15.97
2023-09-21T19:26:04.800Z,15.88
2023-09-21T19:28:32.396Z,15.89
2023-09-21T19:31:00.656Z,15.89
2023-09-21T19:33:28.215Z,15.93
2023-09-21T19:35:55.637Z,15.86
2023-09-21T19:38:22.924Z,15.84
2023-09-21T19:40:49.666Z,15.73
2023-09-21T19:43:16.688Z,15.74
2023-09-21T19:45:43.482Z,15.71
2023-09-21T19:48:10.302Z,15.69
2023-09-21T19:50:37.409Z,15.64
2023-09-21T19:53:05.627Z,15.60
2023-09-21T19:55:32.556Z,15.54
2023-09-21T19:57:59.481Z,15.51
2023-09-21T20:00:26.627Z,15.46
2023-09-21T20:02:53.392Z,15.41
2023-09-21T20:05:20.431Z,15.36
2023-09-21T20:07:47.427Z,15.32
2023-09-21T20:10:14.112Z,15.23
2023-09-21T20:12:40.927Z,15.14
2023-09-21T20:15:09.978Z,15.06
2023-09-21T20:17:36.818Z,15.02
2023-09-21T20:20:03.779Z,14.98
2023-09-21T20:22:32.429Z,15.02
2023-09-21T20:24:59.102Z,14.91
2023-09-21T20:27:25.862Z,14.78
2023-09-21T20:29:52.533Z,14.66
2023-09-21T20:32:19.231Z,14.66
2023-09-21T20:34:45.794Z,14.66
2023-09-21T20:37:12.501Z,14.64
2023-09-21T20:39:39.109Z,14.64
2023-09-21T20:42:05.802Z,14.53
2023-09-21T20:44:33.869Z,14.51
2023-09-21T20:47:00.942Z,14.46
2023-09-21T20:49:28.975Z,14.46
2023-09-21T20:51:55.602Z,14.40
2023-09-21T20:54:23.843Z,14.30
2023-09-21T20:56:51.467Z,14.36
2023-09-21T20:59:18.090Z,14.31
2023-09-21T21:01:44.836Z,14.41
2023-09-21T21:04:12.150Z,14.31
2023-09-21T21:06:38.947Z,14.19
2023-09-21T21:09:06.528Z,14.08
2023-09-21T21:11:33.430Z,13.94
2023-09-21T21:14:00.748Z,14.10
2023-09-21T21:16:28.707Z,14.11
2023-09-21T21:18:55.394Z,14.15
2023-09-21T21:21:22.056Z,14.13
2023-09-21T21:23:48.656Z,14.05
2023-09-21T21:26:15.236Z,14.01
2023-09-21T21:28:42.123Z,14.05
2023-09-21T21:31:08.814Z,13.99
2023-09-21T21:33:35.468Z,13.89
2023-09-21T21:36:02.690Z,13.78
2023-09-21T21:38:29.286Z,13.66
2023-09-21T21:40:55.956Z,13.61
2023-09-21T21:43:22.609Z,13.62
2023-09-21T21:45:49.457Z,13.77
2023-09-21T21:48:16.191Z,13.78
2023-09-21T21:50:43.024Z,13.74
2023-09-21T21:53:09.629Z,13.52
2023-09-21T21:55:37.008Z,13.43
2023-09-21T21:58:03.745Z,13.39
2023-09-21T22:00:32.823Z,13.29
2023-09-21T22:02:59.972Z,13.17
2023-09-21T22:05:30.344Z,13.14
2023-09-21T22:07:58.348Z,13.10
2023-09-21T22:10:25.383Z,12.97
2023-09-21T22:12:53.868Z,12.85
2023-09-21T22:15:20.957Z,12.75
2023-09-21T22:17:47.781Z,12.72
2023-09-21T22:20:17.256Z,12.68
2023-09-21T22:22:47.199Z,12.65
2023-09-21T22:25:14.563Z,12.59
2023-09-21T22:27:41.381Z,12.56
2023-09-21T22:30:10.676Z,12.50
2023-09-21T22:32:38.316Z,12.48
2023-09-21T22:35:06.418Z,12.47
2023-09-21T22:37:35.556Z,12.56
2023-09-21T22:40:04.918Z,12.58
2023-09-21T22:42:46.568Z,12.52
2023-09-21T22:45:15.275Z,12.51
2023-09-21T22:47:43.884Z,12.52
2023-09-21T22:50:15.005Z,12.47
2023-09-21T22:52:44.268Z,12.42
2023-09-21T22:55:10.935Z,12.37
2023-09-21T22:57:37.560Z,12.46
2023-09-21T23:00:08.191Z,12.45
2023-09-21T23:02:34.755Z,12.36
2023-09-21T23:05:01.986Z,12.30
2023-09-21T23:07:28.690Z,12.21
2023-09-21T23:09:55.602Z,12.12
2023-09-21T23:12:22.143Z,12.08
2023-09-21T23:14:48.739Z,12.06
2023-09-21T23:17:16.029Z,12.07
2023-09-21T23:19:42.609Z,12.08
2023-09-21T23:22:09.175Z,12.12
2023-09-21T23:24:35.783Z,12.25
2023-09-21T23:27:05.714Z,12.26
2023-09-21T23:29:32.423Z,12.23
2023-09-21T23:31:58.949Z,12.29
2023-09-21T23:34:26.775Z,12.25
2023-09-21T23:36:53.579Z,12.24
2023-09-21T23:39:20.547Z,12.25
2023-09-21T23:41:47.112Z,12.17
2023-09-21T23:44:15.178Z,12.06
2023-09-21T23:46:42.251Z,12.03
2023-09-21T23:49:09.381Z,12.02
2023-09-21T23:51:36.045Z,12.00
2023-09-21T23:54:07.397Z,11.98
2023-09-21T23:56:34.008Z,12.03
2023-09-21T23:59:00.617Z,12.17
